createdAt,value
2019-05-28T00:00:30.685Z,206.23
2019-05-28T00:04:41.084Z,200.20
2019-05-28T00:08:51.456Z,191.67
2019-05-28T00:13:01.759Z,189.90
2019-05-28T00:17:12.058Z,190.33
2019-05-28T00:21:22.258Z,194.23
2019-05-28T00:25:32.463Z,192.57
2019-05-28T00:29:42.800Z,192.87
2019-05-28T00:33:53.717Z,195.13
2019-05-28T00:38:04.139Z,194.07
2019-05-28T00:42:14.369Z,192.70
2019-05-28T00:46:24.635Z,196.07
2019-05-28T00:50:35.001Z,194.83
2019-05-28T00:54:45.433Z,190.80
2019-05-28T00:58:56.250Z,189.20
2019-05-28T01:03:06.537Z,193.73
2019-05-28T01:07:16.780Z,188.87
2019-05-28T01:11:27.064Z,191.27
2019-05-28T01:15:37.886Z,192.50
2019-05-28T01:19:48.384Z,199.30
2019-05-28T01:23:58.634Z,193.57
2019-05-28T01:28:08.960Z,199.23
2019-05-28T01:32:19.443Z,195.23
2019-05-28T01:36:29.851Z,197.40
2019-05-28T01:40:40.893Z,195.27
2019-05-28T01:44:53.302Z,192.83
2019-05-28T01:49:03.985Z,193.43
2019-05-28T01:53:14.288Z,193.50
2019-05-28T01:57:24.629Z,194.83
2019-05-28T02:01:34.904Z,193.63
2019-05-28T02:05:45.506Z,192.80
2019-05-28T02:09:55.827Z,197.03
2019-05-28T02:14:06.197Z,193.63
2019-05-28T02:18:16.550Z,194.43
2019-05-28T02:22:27.424Z,195.23
2019-05-28T02:26:37.771Z,204.87
2019-05-28T02:30:47.987Z,197.60
2019-05-28T02:34:58.192Z,197.17
2019-05-28T02:39:09.380Z,194.40
2019-05-28T02:43:19.795Z,198.40
2019-05-28T02:47:30.193Z,197.70
2019-05-28T02:51:41.740Z,200.13
2019-05-28T02:55:52.591Z,208.33
2019-05-28T03:00:04.888Z,196.07
2019-05-28T03:04:15.967Z,193.03
2019-05-28T03:08:31.201Z,195.53
2019-05-28T03:12:41.592Z,200.73
2019-05-28T03:16:54.838Z,190.23
2019-05-28T03:21:05.973Z,195.03
2019-05-28T03:25:18.066Z,195.20
2019-05-28T03:29:28.450Z,192.20
2019-05-28T03:33:38.787Z,192.20
2019-05-28T03:37:49.931Z,193.90
2019-05-28T03:42:00.337Z,194.53
2019-05-28T03:46:10.665Z,197.47
2019-05-28T03:50:21.571Z,198.70
2019-05-28T03:54:31.905Z,206.97
2019-05-28T03:58:42.269Z,202.03
2019-05-28T04:02:52.679Z,196.83
2019-05-28T04:07:03.119Z,195.43
2019-05-28T04:11:13.450Z,191.23
2019-05-28T04:15:23.746Z,195.03
2019-05-28T04:19:34.074Z,192.67
2019-05-28T04:23:44.608Z,187.87
2019-05-28T04:27:55.508Z,189.77
2019-05-28T04:32:05.820Z,192.43
2019-05-28T04:36:16.276Z,195.70
2019-05-28T04:40:26.521Z,192.43
2019-05-28T04:44:36.853Z,190.57
2019-05-28T04:48:47.177Z,184.33
2019-05-28T04:52:57.438Z,184.47
2019-05-28T04:57:07.802Z,186.60
2019-05-28T05:01:18.157Z,188.80
2019-05-28T05:05:28.494Z,205.00
2019-05-28T05:09:39.047Z,190.10
2019-05-28T05:13:49.615Z,192.90
2019-05-28T05:18:00.824Z,196.97
2019-05-28T05:22:11.533Z,189.53
2019-05-28T05:26:22.830Z,199.97
2019-05-28T05:30:33.314Z,192.83
2019-05-28T05:34:43.825Z,188.47
2019-05-28T05:38:54.098Z,196.30
2019-05-28T05:43:05.556Z,191.28
2019-05-28T05:47:15.869Z,192.60
2019-05-28T05:51:26.160Z,192.47
2019-05-28T05:55:36.633Z,193.57
2019-05-28T05:59:47.834Z,194.47
2019-05-28T06:03:59.508Z,185.50
2019-05-28T06:08:09.887Z,191.37
2019-05-28T06:12:20.220Z,189.67
2019-05-28T06:16:30.550Z,189.50
2019-05-28T06:20:40.878Z,191.73
2019-05-28T06:24:51.223Z,186.37
2019-05-28T06:29:01.551Z,185.93
2019-05-28T06:33:12.809Z,186.17
2019-05-28T06:37:23.165Z,189.20
2019-05-28T06:41:33.633Z,192.73
2019-05-28T06:45:44.545Z,192.03
2019-05-28T06:49:54.979Z,185.43
2019-05-28T06:54:05.328Z,194.00
2019-05-28T06:58:39.619Z,185.57
2019-05-28T07:02:45.354Z,188.93
2019-05-28T07:06:59.043Z,196.97
2019-05-28T07:11:08.377Z,195.20
2019-05-28T07:15:18.966Z,195.07
2019-05-28T07:19:29.428Z,186.97
2019-05-28T07:23:39.768Z,192.57
2019-05-28T07:27:49.968Z,188.47
2019-05-28T07:32:00.311Z,183.50
2019-05-28T07:36:14.027Z,185.33
2019-05-28T07:40:31.828Z,187.18
2019-05-28T07:44:36.641Z,190.00
2019-05-28T07:48:47.024Z,189.57
2019-05-28T07:53:00.142Z,186.77
2019-05-28T07:57:12.596Z,187.90
2019-05-28T08:01:23.018Z,190.30
2019-05-28T08:05:34.618Z,185.30
2019-05-28T08:09:44.968Z,192.67
2019-05-28T08:13:56.492Z,191.00
2019-05-28T08:18:07.280Z,203.07
2019-05-28T08:22:17.722Z,191.50
2019-05-28T08:26:28.061Z,195.72
2019-05-28T08:30:39.385Z,190.82
2019-05-28T08:35:04.215Z,187.85
2019-05-28T08:39:02.184Z,189.20
2019-05-28T08:43:12.419Z,187.80
2019-05-28T08:47:23.121Z,191.45
2019-05-28T08:51:35.293Z,186.62
2019-05-28T08:55:45.497Z,184.10
2019-05-28T08:59:55.934Z,186.55
2019-05-28T09:04:06.247Z,192.57
2019-05-28T09:08:16.673Z,190.25
2019-05-28T09:12:26.902Z,193.82
2019-05-28T09:16:37.111Z,191.25
2019-05-28T09:20:47.457Z,193.00
2019-05-28T09:24:57.737Z,194.80
2019-05-28T09:29:08.460Z,194.45
2019-05-28T09:33:18.845Z,193.68
2019-05-28T09:37:29.205Z,188.12
2019-05-28T09:41:39.551Z,191.75
2019-05-28T09:45:49.836Z,191.85
2019-05-28T09:50:00.338Z,191.53
2019-05-28T09:54:10.712Z,192.30
2019-05-28T09:58:22.676Z,192.15
2019-05-28T10:02:32.883Z,192.80
2019-05-28T10:06:43.219Z,194.93
2019-05-28T10:10:53.422Z,192.50
2019-05-28T10:15:08.181Z,191.07
2019-05-28T10:19:18.432Z,193.93
2019-05-28T10:23:28.992Z,195.28
2019-05-28T10:27:39.453Z,195.43
2019-05-28T10:31:49.752Z,193.30
2019-05-28T10:36:00.057Z,192.60
2019-05-28T10:40:10.889Z,195.50
2019-05-28T10:44:21.223Z,196.25
2019-05-28T10:48:31.426Z,196.32
2019-05-28T10:52:41.637Z,192.03
2019-05-28T10:56:51.972Z,190.03
2019-05-28T11:01:02.187Z,191.07
2019-05-28T11:05:13.539Z,188.77
2019-05-28T11:09:23.790Z,196.90
2019-05-28T11:13:34.073Z,194.25
2019-05-28T11:17:44.418Z,190.28
2019-05-28T11:21:54.658Z,193.68
2019-05-28T11:26:05.550Z,196.82
2019-05-28T11:30:16.205Z,195.03
2019-05-28T11:34:26.618Z,193.65
2019-05-28T11:38:36.913Z,193.35
2019-05-28T11:42:47.351Z,195.47
2019-05-28T11:46:57.734Z,190.60
2019-05-28T11:51:07.941Z,190.30
2019-05-28T11:55:19.288Z,195.07
2019-05-28T11:59:29.685Z,189.90
2019-05-28T12:03:40.093Z,190.20
2019-05-28T12:07:51.765Z,190.12
2019-05-28T12:12:02.289Z,191.30
2019-05-28T12:16:12.549Z,190.73
2019-05-28T12:20:24.672Z,196.27
2019-05-28T12:24:34.986Z,199.32
2019-05-28T12:28:45.289Z,192.50
2019-05-28T12:32:55.530Z,191.28
2019-05-28T12:37:05.850Z,196.90
2019-05-28T12:41:16.399Z,192.57
2019-05-28T12:45:35.625Z,191.60
2019-05-28T12:49:39.075Z,191.32
2019-05-28T12:53:51.406Z,196.63
2019-05-28T12:58:01.378Z,189.72
2019-05-28T13:02:11.737Z,209.10
2019-05-28T13:06:22.174Z,195.38
2019-05-28T13:10:32.384Z,193.72
2019-05-28T13:14:42.580Z,220.17
2019-05-28T13:18:53.217Z,215.00
2019-05-28T13:23:03.527Z,199.05
2019-05-28T13:27:18.118Z,192.95
2019-05-28T13:31:25.803Z,191.70
2019-05-28T13:35:36.027Z,190.73
2019-05-28T13:39:46.323Z,193.82
2019-05-28T13:43:56.998Z,193.55
2019-05-28T13:48:08.630Z,195.10
2019-05-28T13:52:19.575Z,191.43
2019-05-28T13:56:30.323Z,193.78
2019-05-28T14:00:44.102Z,193.17
2019-05-28T14:04:55.208Z,192.00
2019-05-28T14:09:08.015Z,191.15
2019-05-28T14:13:18.524Z,192.70
2019-05-28T14:17:28.988Z,194.67
2019-05-28T14:21:39.574Z,190.55
2019-05-28T14:25:49.793Z,188.78
2019-05-28T14:29:59.993Z,190.73
2019-05-28T14:34:10.329Z,191.28
2019-05-28T14:38:20.742Z,191.90
2019-05-28T14:42:30.976Z,195.80
2019-05-28T14:46:41.362Z,191.53
2019-05-28T14:50:51.657Z,193.20
2019-05-28T14:55:01.989Z,196.07
2019-05-28T14:59:12.586Z,188.90
2019-05-28T15:03:22.925Z,192.28
2019-05-28T15:07:34.835Z,192.53
2019-05-28T15:11:45.172Z,189.07
2019-05-28T15:15:56.749Z,189.47
2019-05-28T15:20:07.529Z,190.90
2019-05-28T15:24:18.624Z,190.45
2019-05-28T15:28:29.109Z,195.77
2019-05-28T15:32:40.967Z,192.82
2019-05-28T15:36:51.410Z,195.15
2019-05-28T15:41:01.630Z,191.25
2019-05-28T15:45:13.073Z,186.27
2019-05-28T15:49:24.895Z,191.15
2019-05-28T15:53:35.192Z,188.37
2019-05-28T15:57:46.528Z,185.28
2019-05-28T16:01:56.902Z,187.92
2019-05-28T16:06:07.215Z,189.10
2019-05-28T16:10:18.165Z,187.17
2019-05-28T16:14:30.073Z,186.60
2019-05-28T16:18:40.397Z,189.03
2019-05-28T16:22:50.749Z,186.75
2019-05-28T16:27:00.946Z,186.57
2019-05-28T16:31:13.153Z,191.37
2019-05-28T16:35:23.211Z,187.00
2019-05-28T16:39:33.548Z,184.97
2019-05-28T16:43:45.430Z,187.43
2019-05-28T16:47:56.330Z,188.15
2019-05-28T16:52:06.704Z,188.18
2019-05-28T16:56:19.776Z,191.92
2019-05-28T17:00:30.970Z,191.53
2019-05-28T17:04:41.426Z,221.40
2019-05-28T17:08:51.789Z,186.25
2019-05-28T17:13:02.117Z,189.07
2019-05-28T17:17:12.435Z,186.95
2019-05-28T17:21:23.346Z,189.13
2019-05-28T17:25:33.549Z,193.28
2019-05-28T17:29:44.051Z,188.93
2019-05-28T17:33:54.361Z,187.85
2019-05-28T17:38:04.702Z,187.90
2019-05-28T17:42:14.989Z,187.12
2019-05-28T17:46:25.194Z,188.93
2019-05-28T17:50:35.402Z,192.10
2019-05-28T17:54:45.753Z,189.40
2019-05-28T17:58:56.113Z,194.02
2019-05-28T18:03:07.108Z,188.37
2019-05-28T18:07:17.424Z,189.70
2019-05-28T18:11:28.110Z,189.13
2019-05-28T18:15:38.417Z,181.18
2019-05-28T18:19:48.618Z,183.00
2019-05-28T18:23:58.964Z,182.68
2019-05-28T18:28:09.300Z,187.37
2019-05-28T18:32:19.642Z,185.90
2019-05-28T18:36:29.948Z,182.53
2019-05-28T18:40:40.952Z,188.50
2019-05-28T18:44:52.232Z,180.53
2019-05-28T18:49:03.818Z,182.67
2019-05-28T18:53:14.159Z,183.17
2019-05-28T18:57:24.505Z,181.30
2019-05-28T19:01:34.746Z,182.53
2019-05-28T19:05:45.046Z,182.43
2019-05-28T19:09:55.251Z,184.40
2019-05-28T19:14:05.659Z,180.73
2019-05-28T19:18:16.576Z,184.53
2019-05-28T19:22:26.813Z,180.83
2019-05-28T19:26:38.793Z,181.77
2019-05-28T19:30:50.606Z,185.37
2019-05-28T19:35:00.940Z,187.73
2019-05-28T19:39:17.797Z,181.03
2019-05-28T19:43:28.141Z,184.73
2019-05-28T19:47:38.487Z,178.17
2019-05-28T19:51:50.150Z,181.05
2019-05-28T19:56:01.052Z,184.70
2019-05-28T20:00:13.945Z,186.37
2019-05-28T20:04:24.254Z,180.83
2019-05-28T20:08:35.819Z,182.83
2019-05-28T20:12:46.044Z,180.77
2019-05-28T20:16:57.383Z,180.20
2019-05-28T20:21:08.325Z,180.03
2019-05-28T20:25:18.762Z,182.83
2019-05-28T20:29:35.658Z,180.03
2019-05-28T20:33:41.187Z,179.50
2019-05-28T20:37:51.598Z,176.83
2019-05-28T20:42:02.092Z,180.83
2019-05-28T20:46:12.430Z,181.07
2019-05-28T20:50:22.881Z,180.70
2019-05-28T20:54:33.262Z,178.93
2019-05-28T20:58:43.500Z,185.27
2019-05-28T21:02:53.914Z,179.27
2019-05-28T21:07:04.393Z,179.43
2019-05-28T21:11:14.696Z,178.83
2019-05-28T21:15:25.086Z,182.60
2019-05-28T21:19:35.317Z,178.23
2019-05-28T21:23:45.514Z,182.17
2019-05-28T21:27:56.481Z,177.23
2019-05-28T21:32:06.829Z,179.23
2019-05-28T21:36:17.126Z,183.50
2019-05-28T21:40:27.440Z,185.47
2019-05-28T21:44:37.678Z,180.60
2019-05-28T21:48:49.929Z,180.93
2019-05-28T21:53:01.174Z,180.03
2019-05-28T21:57:11.871Z,178.60
2019-05-28T22:01:25.404Z,178.20
2019-05-28T22:05:35.718Z,184.72
2019-05-28T22:09:48.091Z,184.13
2019-05-28T22:14:02.227Z,180.80
2019-05-28T22:18:13.845Z,181.70
2019-05-28T22:22:24.976Z,179.80
2019-05-28T22:26:36.002Z,182.87
2019-05-28T22:30:46.309Z,185.57
2019-05-28T22:34:57.727Z,186.70
2019-05-28T22:39:09.149Z,179.30
2019-05-28T22:43:31.062Z,197.03
2019-05-28T22:47:31.481Z,183.13
2019-05-28T22:51:41.919Z,181.63
2019-05-28T22:55:52.228Z,180.87
2019-05-28T23:00:03.108Z,181.60
2019-05-28T23:04:13.508Z,181.23
2019-05-28T23:08:23.704Z,182.00
2019-05-28T23:12:33.913Z,184.10
2019-05-28T23:16:44.788Z,179.20
2019-05-28T23:20:55.999Z,176.40
2019-05-28T23:25:08.013Z,182.00
2019-05-28T23:29:18.458Z,184.67
2019-05-28T23:33:28.796Z,176.37
2019-05-28T23:37:40.224Z,180.83
2019-05-28T23:41:52.132Z,178.63
2019-05-28T23:46:04.295Z,178.90
2019-05-28T23:50:18.022Z,176.37
2019-05-28T23:54:27.001Z,177.27
2019-05-28T23:58:37.244Z,174.97
